sensor_id;sensor_type;location;lat;lon;timestamp;P1;durP1;ratioP1;P2;durP2;ratioP2
22388;SDS011;11362;48.102;11.620;2023-02-25T00:01:39;1.07;;;1.07;;
22388;SDS011;11362;48.102;11.620;2023-02-25T00:04:04;1.70;;;1.10;;
22388;SDS011;11362;48.102;11.620;2023-02-25T00:06:30;3.43;;;1.37;;
22388;SDS011;11362;48.102;11.620;2023-02-25T00:08:55;1.27;;;1.20;;
22388;SDS011;11362;48.102;11.620;2023-02-25T00:11:22;1.80;;;0.93;;
22388;SDS011;11362;48.102;11.620;2023-02-25T00:13:48;1.73;;;1.33;;
22388;SDS011;11362;48.102;11.620;2023-02-25T00:16:14;1.33;;;1.10;;
22388;SDS011;11362;48.102;11.620;2023-02-25T00:18:39;1.33;;;1.13;;
22388;SDS011;11362;48.102;11.620;2023-02-25T00:21:06;1.40;;;0.90;;
22388;SDS011;11362;48.102;11.620;2023-02-25T00:23:31;1.80;;;1.40;;
22388;SDS011;11362;48.102;11.620;2023-02-25T00:25:58;1.83;;;0.90;;
22388;SDS011;11362;48.102;11.620;2023-02-25T00:28:24;0.80;;;0.80;;
22388;SDS011;11362;48.102;11.620;2023-02-25T00:30:50;1.13;;;1.10;;
22388;SDS011;11362;48.102;11.620;2023-02-25T00:33:15;1.63;;;1.03;;
22388;SDS011;11362;48.102;11.620;2023-02-25T00:35:40;1.20;;;1.10;;
22388;SDS011;11362;48.102;11.620;2023-02-25T00:38:06;1.00;;;1.00;;
22388;SDS011;11362;48.102;11.620;2023-02-25T00:40:33;0.87;;;0.87;;
22388;SDS011;11362;48.102;11.620;2023-02-25T00:43:01;1.33;;;1.20;;
22388;SDS011;11362;48.102;11.620;2023-02-25T00:45:26;1.13;;;1.03;;
22388;SDS011;11362;48.102;11.620;2023-02-25T00:47:52;2.27;;;1.20;;
22388;SDS011;11362;48.102;11.620;2023-02-25T00:50:17;2.87;;;1.10;;
22388;SDS011;11362;48.102;11.620;2023-02-25T00:52:42;1.23;;;1.00;;
22388;SDS011;11362;48.102;11.620;2023-02-25T00:55:08;2.07;;;1.50;;
22388;SDS011;11362;48.102;11.620;2023-02-25T00:57:33;0.90;;;0.90;;
22388;SDS011;11362;48.102;11.620;2023-02-25T00:59:58;1.30;;;0.97;;
22388;SDS011;11362;48.102;11.620;2023-02-25T01:02:24;1.43;;;1.00;;
22388;SDS011;11362;48.102;11.620;2023-02-25T01:04:49;1.30;;;0.80;;
22388;SDS011;11362;48.102;11.620;2023-02-25T01:07:14;1.43;;;1.37;;
22388;SDS011;11362;48.102;11.620;2023-02-25T01:09:40;1.20;;;0.90;;
22388;SDS011;11362;48.102;11.620;2023-02-25T01:12:05;2.00;;;0.83;;
22388;SDS011;11362;48.102;11.620;2023-02-25T01:14:30;1.23;;;1.10;;
22388;SDS011;11362;48.102;11.620;2023-02-25T01:16:56;0.90;;;0.73;;
22388;SDS011;11362;48.102;11.620;2023-02-25T01:19:22;2.73;;;1.80;;
22388;SDS011;11362;48.102;11.620;2023-02-25T01:21:50;0.80;;;0.80;;
22388;SDS011;11362;48.102;11.620;2023-02-25T01:24:18;1.40;;;0.90;;
22388;SDS011;11362;48.102;11.620;2023-02-25T01:26:45;0.90;;;0.87;;
22388;SDS011;11362;48.102;11.620;2023-02-25T01:29:13;2.40;;;0.97;;
22388;SDS011;11362;48.102;11.620;2023-02-25T01:31:40;1.03;;;0.83;;
22388;SDS011;11362;48.102;11.620;2023-02-25T01:34:06;1.37;;;0.70;;
22388;SDS011;11362;48.102;11.620;2023-02-25T01:36:33;0.97;;;0.97;;
22388;SDS011;11362;48.102;11.620;2023-02-25T01:38:59;0.80;;;0.80;;
22388;SDS011;11362;48.102;11.620;2023-02-25T01:41:26;3.17;;;0.90;;
22388;SDS011;11362;48.102;11.620;2023-02-25T01:44:13;0.67;;;0.60;;
22388;SDS011;11362;48.102;11.620;2023-02-25T01:46:39;1.87;;;0.80;;
22388;SDS011;11362;48.102;11.620;2023-02-25T01:49:08;0.80;;;0.80;;
22388;SDS011;11362;48.102;11.620;2023-02-25T01:51:38;2.20;;;0.70;;
22388;SDS011;11362;48.102;11.620;2023-02-25T01:54:05;0.80;;;0.80;;
22388;SDS011;11362;48.102;11.620;2023-02-25T01:56:33;1.10;;;0.60;;
22388;SDS011;11362;48.102;11.620;2023-02-25T01:59:02;0.60;;;0.53;;
22388;SDS011;11362;48.102;11.620;2023-02-25T02:01:28;0.70;;;0.70;;
22388;SDS011;11362;48.102;11.620;2023-02-25T02:03:57;0.53;;;0.53;;
22388;SDS011;11362;48.102;11.620;2023-02-25T02:06:25;0.83;;;0.70;;
22388;SDS011;11362;48.102;11.620;2023-02-25T02:08:54;1.00;;;0.90;;
22388;SDS011;11362;48.102;11.620;2023-02-25T02:11:20;0.80;;;0.80;;
22388;SDS011;11362;48.102;11.620;2023-02-25T02:13:47;1.40;;;0.73;;
22388;SDS011;11362;48.102;11.620;2023-02-25T02:16:20;1.27;;;0.70;;
22388;SDS011;11362;48.102;11.620;2023-02-25T02:19:33;0.80;;;0.80;;
22388;SDS011;11362;48.102;11.620;2023-02-25T02:22:11;1.30;;;1.20;;
22388;SDS011;11362;48.102;11.620;2023-02-25T02:35:37;1.23;;;0.63;;
22388;SDS011;11362;48.102;11.620;2023-02-25T02:38:12;0.60;;;0.60;;
22388;SDS011;11362;48.102;11.620;2023-02-25T02:40:40;0.63;;;0.60;;
22388;SDS011;11362;48.102;11.620;2023-02-25T02:45:58;0.87;;;0.70;;
22388;SDS011;11362;48.102;11.620;2023-02-25T02:48:31;0.53;;;0.53;;
22388;SDS011;11362;48.102;11.620;2023-02-25T02:51:05;0.77;;;0.63;;
22388;SDS011;11362;48.102;11.620;2023-02-25T02:53:37;0.60;;;0.60;;
22388;SDS011;11362;48.102;11.620;2023-02-25T02:56:06;1.37;;;0.70;;
22388;SDS011;11362;48.102;11.620;2023-02-25T02:58:34;0.50;;;0.50;;
22388;SDS011;11362;48.102;11.620;2023-02-25T03:01:08;0.60;;;0.60;;
22388;SDS011;11362;48.102;11.620;2023-02-25T03:03:38;0.53;;;0.53;;
22388;SDS011;11362;48.102;11.620;2023-02-25T03:06:08;0.60;;;0.60;;
22388;SDS011;11362;48.102;11.620;2023-02-25T03:08:45;0.70;;;0.50;;
22388;SDS011;11362;48.102;11.620;2023-02-25T03:11:27;0.40;;;0.40;;
22388;SDS011;11362;48.102;11.620;2023-02-25T03:13:52;0.57;;;0.57;;
22388;SDS011;11362;48.102;11.620;2023-02-25T03:16:20;0.60;;;0.60;;
22388;SDS011;11362;48.102;11.620;2023-02-25T03:18:52;0.50;;;0.50;;
22388;SDS011;11362;48.102;11.620;2023-02-25T03:21:42;0.43;;;0.43;;
22388;SDS011;11362;48.102;11.620;2023-02-25T03:24:14;1.50;;;0.50;;
22388;SDS011;11362;48.102;11.620;2023-02-25T03:26:43;0.73;;;0.70;;
22388;SDS011;11362;48.102;11.620;2023-02-25T03:29:12;0.77;;;0.47;;
22388;SDS011;11362;48.102;11.620;2023-02-25T03:31:41;0.40;;;0.40;;
22388;SDS011;11362;48.102;11.620;2023-02-25T03:34:19;0.47;;;0.47;;
22388;SDS011;11362;48.102;11.620;2023-02-25T03:37:10;0.83;;;0.53;;
22388;SDS011;11362;48.102;11.620;2023-02-25T03:39:37;0.60;;;0.40;;
22388;SDS011;11362;48.102;11.620;2023-02-25T03:42:08;0.63;;;0.50;;
22388;SDS011;11362;48.102;11.620;2023-02-25T03:44:38;0.77;;;0.70;;
22388;SDS011;11362;48.102;11.620;2023-02-25T03:47:14;0.40;;;0.40;;
22388;SDS011;11362;48.102;11.620;2023-02-25T03:50:05;0.50;;;0.50;;
22388;SDS011;11362;48.102;11.620;2023-02-25T03:52:32;0.40;;;0.40;;
22388;SDS011;11362;48.102;11.620;2023-02-25T03:54:57;0.43;;;0.43;;
22388;SDS011;11362;48.102;11.620;2023-02-25T03:57:24;0.37;;;0.37;;
22388;SDS011;11362;48.102;11.620;2023-02-25T03:59:58;0.70;;;0.70;;
22388;SDS011;11362;48.102;11.620;2023-02-25T04:02:28;0.43;;;0.43;;
22388;SDS011;11362;48.102;11.620;2023-02-25T04:04:56;0.40;;;0.40;;
22388;SDS011;11362;48.102;11.620;2023-02-25T04:07:22;0.40;;;0.40;;
22388;SDS011;11362;48.102;11.620;2023-02-25T04:09:47;0.57;;;0.57;;
22388;SDS011;11362;48.102;11.620;2023-02-25T04:12:12;0.47;;;0.40;;
22388;SDS011;11362;48.102;11.620;2023-02-25T04:14:37;0.50;;;0.50;;
22388;SDS011;11362;48.102;11.620;2023-02-25T04:17:03;0.40;;;0.40;;
22388;SDS011;11362;48.102;11.620;2023-02-25T04:19:28;0.50;;;0.50;;
22388;SDS011;11362;48.102;11.620;2023-02-25T04:21:53;0.50;;;0.50;;
22388;SDS011;11362;48.102;11.620;2023-02-25T04:24:19;0.50;;;0.50;;
22388;SDS011;11362;48.102;11.620;2023-02-25T04:26:44;1.27;;;0.33;;
22388;SDS011;11362;48.102;11.620;2023-02-25T04:29:09;0.60;;;0.60;;
22388;SDS011;11362;48.102;11.620;2023-02-25T04:31:34;0.50;;;0.50;;
22388;SDS011;11362;48.102;11.620;2023-02-25T04:34:00;0.30;;;0.30;;
22388;SDS011;11362;48.102;11.620;2023-02-25T04:36:30;0.20;;;0.20;;
22388;SDS011;11362;48.102;11.620;2023-02-25T04:38:58;0.60;;;0.60;;
22388;SDS011;11362;48.102;11.620;2023-02-25T04:41:27;0.50;;;0.50;;
22388;SDS011;11362;48.102;11.620;2023-02-25T04:43:54;0.57;;;0.50;;
22388;SDS011;11362;48.102;11.620;2023-02-25T04:46:19;0.27;;;0.27;;
22388;SDS011;11362;48.102;11.620;2023-02-25T04:48:44;0.40;;;0.40;;
22388;SDS011;11362;48.102;11.620;2023-02-25T04:51:09;0.40;;;0.40;;
22388;SDS011;11362;48.102;11.620;2023-02-25T04:53:35;0.33;;;0.33;;
22388;SDS011;11362;48.102;11.620;2023-02-25T04:56:02;0.80;;;0.63;;
22388;SDS011;11362;48.102;11.620;2023-02-25T04:58:28;0.37;;;0.37;;
22388;SDS011;11362;48.102;11.620;2023-02-25T05:00:54;0.43;;;0.43;;
22388;SDS011;11362;48.102;11.620;2023-02-25T05:03:19;0.50;;;0.30;;
22388;SDS011;11362;48.102;11.620;2023-02-25T05:05:44;0.67;;;0.30;;
22388;SDS011;11362;48.102;11.620;2023-02-25T05:08:09;0.40;;;0.40;;
22388;SDS011;11362;48.102;11.620;2023-02-25T05:10:35;0.40;;;0.30;;
22388;SDS011;11362;48.102;11.620;2023-02-25T05:13:00;0.30;;;0.30;;
22388;SDS011;11362;48.102;11.620;2023-02-25T05:15:25;0.43;;;0.43;;
22388;SDS011;11362;48.102;11.620;2023-02-25T05:17:51;1.13;;;0.40;;
22388;SDS011;11362;48.102;11.620;2023-02-25T05:20:16;0.33;;;0.33;;
22388;SDS011;11362;48.102;11.620;2023-02-25T05:22:41;0.40;;;0.40;;
22388;SDS011;11362;48.102;11.620;2023-02-25T05:25:07;0.30;;;0.30;;
22388;SDS011;11362;48.102;11.620;2023-02-25T05:27:33;0.60;;;0.40;;
22388;SDS011;11362;48.102;11.620;2023-02-25T05:29:59;0.33;;;0.33;;
22388;SDS011;11362;48.102;11.620;2023-02-25T05:32:25;0.40;;;0.40;;
22388;SDS011;11362;48.102;11.620;2023-02-25T05:34:50;0.30;;;0.30;;
22388;SDS011;11362;48.102;11.620;2023-02-25T05:37:15;0.70;;;0.37;;
22388;SDS011;11362;48.102;11.620;2023-02-25T05:39:41;1.20;;;0.50;;
22388;SDS011;11362;48.102;11.620;2023-02-25T05:42:06;0.77;;;0.30;;
22388;SDS011;11362;48.102;11.620;2023-02-25T05:44:31;0.30;;;0.30;;
22388;SDS011;11362;48.102;11.620;2023-02-25T05:46:57;0.30;;;0.30;;
22388;SDS011;11362;48.102;11.620;2023-02-25T05:49:22;0.37;;;0.37;;
22388;SDS011;11362;48.102;11.620;2023-02-25T05:51:48;0.30;;;0.30;;
22388;SDS011;11362;48.102;11.620;2023-02-25T05:54:13;0.40;;;0.40;;
22388;SDS011;11362;48.102;11.620;2023-02-25T05:56:39;0.40;;;0.37;;
22388;SDS011;11362;48.102;11.620;2023-02-25T05:59:04;0.40;;;0.40;;
22388;SDS011;11362;48.102;11.620;2023-02-25T06:01:29;0.40;;;0.40;;
22388;SDS011;11362;48.102;11.620;2023-02-25T06:03:55;0.47;;;0.37;;
22388;SDS011;11362;48.102;11.620;2023-02-25T06:06:21;0.30;;;0.30;;
22388;SDS011;11362;48.102;11.620;2023-02-25T06:08:46;0.30;;;0.30;;
22388;SDS011;11362;48.102;11.620;2023-02-25T06:11:12;0.50;;;0.50;;
22388;SDS011;11362;48.102;11.620;2023-02-25T06:13:47;0.27;;;0.27;;
22388;SDS011;11362;48.102;11.620;2023-02-25T06:16:14;0.70;;;0.30;;
22388;SDS011;11362;48.102;11.620;2023-02-25T06:18:40;0.30;;;0.30;;
22388;SDS011;11362;48.102;11.620;2023-02-25T06:21:06;0.40;;;0.27;;
22388;SDS011;11362;48.102;11.620;2023-02-25T06:23:34;0.40;;;0.40;;
22388;SDS011;11362;48.102;11.620;2023-02-25T06:26:01;0.30;;;0.30;;
22388;SDS011;11362;48.102;11.620;2023-02-25T06:28:27;0.23;;;0.20;;
22388;SDS011;11362;48.102;11.620;2023-02-25T06:30:52;0.50;;;0.50;;
22388;SDS011;11362;48.102;11.620;2023-02-25T06:33:18;0.40;;;0.40;;
22388;SDS011;11362;48.102;11.620;2023-02-25T06:35:43;1.50;;;0.50;;
22388;SDS011;11362;48.102;11.620;2023-02-25T06:38:08;0.30;;;0.30;;
22388;SDS011;11362;48.102;11.620;2023-02-25T06:40:34;0.40;;;0.40;;
22388;SDS011;11362;48.102;11.620;2023-02-25T06:42:59;1.17;;;0.70;;
22388;SDS011;11362;48.102;11.620;2023-02-25T06:45:24;5.70;;;0.80;;
22388;SDS011;11362;48.102;11.620;2023-02-25T06:47:50;0.70;;;0.70;;
22388;SDS011;11362;48.102;11.620;2023-02-25T06:50:15;5.60;;;2.23;;
22388;SDS011;11362;48.102;11.620;2023-02-25T06:52:41;2.93;;;0.87;;
22388;SDS011;11362;48.102;11.620;2023-02-25T06:55:06;2.47;;;1.10;;
22388;SDS011;11362;48.102;11.620;2023-02-25T06:57:32;6.73;;;1.27;;
22388;SDS011;11362;48.102;11.620;2023-02-25T06:59:58;7.33;;;1.30;;
22388;SDS011;11362;48.102;11.620;2023-02-25T07:02:23;39.83;;;2.67;;
22388;SDS011;11362;48.102;11.620;2023-02-25T07:04:51;5.13;;;1.53;;
22388;SDS011;11362;48.102;11.620;2023-02-25T07:07:17;10.63;;;2.03;;
22388;SDS011;11362;48.102;11.620;2023-02-25T07:09:42;5.57;;;1.40;;
22388;SDS011;11362;48.102;11.620;2023-02-25T07:12:08;13.97;;;2.00;;
22388;SDS011;11362;48.102;11.620;2023-02-25T07:14:33;10.93;;;2.23;;
22388;SDS011;11362;48.102;11.620;2023-02-25T07:16:58;9.77;;;1.40;;
22388;SDS011;11362;48.102;11.620;2023-02-25T07:19:23;8.03;;;1.70;;
22388;SDS011;11362;48.102;11.620;2023-02-25T07:21:49;12.97;;;1.60;;
22388;SDS011;11362;48.102;11.620;2023-02-25T07:24:14;17.20;;;2.57;;
22388;SDS011;11362;48.102;11.620;2023-02-25T07:26:39;14.57;;;2.13;;
22388;SDS011;11362;48.102;11.620;2023-02-25T07:29:05;13.47;;;2.23;;
22388;SDS011;11362;48.102;11.620;2023-02-25T07:31:30;9.80;;;2.00;;
22388;SDS011;11362;48.102;11.620;2023-02-25T07:33:56;11.87;;;2.10;;
22388;SDS011;11362;48.102;11.620;2023-02-25T07:36:22;16.20;;;2.33;;
22388;SDS011;11362;48.102;11.620;2023-02-25T07:38:47;7.03;;;1.80;;
22388;SDS011;11362;48.102;11.620;2023-02-25T07:41:14;21.70;;;1.97;;
22388;SDS011;11362;48.102;11.620;2023-02-25T07:43:41;16.80;;;2.00;;
22388;SDS011;11362;48.102;11.620;2023-02-25T07:46:07;13.77;;;2.70;;
22388;SDS011;11362;48.102;11.620;2023-02-25T07:48:33;13.53;;;2.03;;
22388;SDS011;11362;48.102;11.620;2023-02-25T07:51:31;13.10;;;1.77;;
22388;SDS011;11362;48.102;11.620;2023-02-25T07:53:50;10.47;;;2.43;;
22388;SDS011;11362;48.102;11.620;2023-02-25T07:56:17;12.80;;;2.13;;
22388;SDS011;11362;48.102;11.620;2023-02-25T07:58:44;10.87;;;1.77;;
22388;SDS011;11362;48.102;11.620;2023-02-25T08:01:10;11.80;;;2.10;;
22388;SDS011;11362;48.102;11.620;2023-02-25T08:03:40;23.10;;;2.43;;
22388;SDS011;11362;48.102;11.620;2023-02-25T08:06:05;12.70;;;2.00;;
22388;SDS011;11362;48.102;11.620;2023-02-25T08:08:31;16.87;;;2.70;;
22388;SDS011;11362;48.102;11.620;2023-02-25T08:10:56;20.20;;;3.07;;
22388;SDS011;11362;48.102;11.620;2023-02-25T08:13:21;16.40;;;2.63;;
22388;SDS011;11362;48.102;11.620;2023-02-25T08:15:47;9.30;;;1.67;;
22388;SDS011;11362;48.102;11.620;2023-02-25T08:18:12;17.13;;;3.17;;
22388;SDS011;11362;48.102;11.620;2023-02-25T08:20:37;8.07;;;2.20;;
22388;SDS011;11362;48.102;11.620;2023-02-25T08:23:03;11.20;;;1.87;;
22388;SDS011;11362;48.102;11.620;2023-02-25T08:25:28;13.37;;;2.43;;
22388;SDS011;11362;48.102;11.620;2023-02-25T08:27:54;23.30;;;3.03;;
22388;SDS011;11362;48.102;11.620;2023-02-25T08:30:20;11.70;;;2.50;;
22388;SDS011;11362;48.102;11.620;2023-02-25T08:32:46;9.63;;;2.03;;
22388;SDS011;11362;48.102;11.620;2023-02-25T08:35:11;32.13;;;2.93;;
22388;SDS011;11362;48.102;11.620;2023-02-25T08:37:37;21.93;;;2.53;;
22388;SDS011;11362;48.102;11.620;2023-02-25T08:40:03;27.60;;;3.60;;
22388;SDS011;11362;48.102;11.620;2023-02-25T08:42:29;18.30;;;3.87;;
22388;SDS011;11362;48.102;11.620;2023-02-25T08:44:54;10.20;;;2.83;;
22388;SDS011;11362;48.102;11.620;2023-02-25T08:47:19;12.23;;;3.00;;
22388;SDS011;11362;48.102;11.620;2023-02-25T08:49:44;19.87;;;2.37;;
22388;SDS011;11362;48.102;11.620;2023-02-25T08:52:10;22.27;;;2.47;;
22388;SDS011;11362;48.102;11.620;2023-02-25T08:54:35;17.73;;;2.50;;
22388;SDS011;11362;48.102;11.620;2023-02-25T08:57:00;18.23;;;3.10;;
22388;SDS011;11362;48.102;11.620;2023-02-25T08:59:26;16.00;;;2.40;;
22388;SDS011;11362;48.102;11.620;2023-02-25T09:01:51;10.87;;;3.03;;
22388;SDS011;11362;48.102;11.620;2023-02-25T09:04:17;13.43;;;2.77;;
22388;SDS011;11362;48.102;11.620;2023-02-25T09:06:44;15.90;;;2.40;;
22388;SDS011;11362;48.102;11.620;2023-02-25T09:09:10;17.83;;;3.37;;
22388;SDS011;11362;48.102;11.620;2023-02-25T09:11:35;15.67;;;2.50;;
22388;SDS011;11362;48.102;11.620;2023-02-25T09:14:00;23.63;;;4.83;;
22388;SDS011;11362;48.102;11.620;2023-02-25T09:16:27;16.80;;;3.37;;
22388;SDS011;11362;48.102;11.620;2023-02-25T09:18:53;13.70;;;3.13;;
22388;SDS011;11362;48.102;11.620;2023-02-25T09:21:19;18.47;;;3.43;;
22388;SDS011;11362;48.102;11.620;2023-02-25T09:23:44;14.37;;;2.77;;
22388;SDS011;11362;48.102;11.620;2023-02-25T09:26:10;17.00;;;2.73;;
22388;SDS011;11362;48.102;11.620;2023-02-25T09:28:36;15.37;;;3.10;;
22388;SDS011;11362;48.102;11.620;2023-02-25T09:31:02;16.33;;;4.17;;
22388;SDS011;11362;48.102;11.620;2023-02-25T09:33:29;13.57;;;3.53;;
22388;SDS011;11362;48.102;11.620;2023-02-25T09:36:02;17.67;;;2.20;;
22388;SDS011;11362;48.102;11.620;2023-02-25T09:38:31;18.90;;;3.07;;
22388;SDS011;11362;48.102;11.620;2023-02-25T09:40:56;11.30;;;2.60;;
22388;SDS011;11362;48.102;11.620;2023-02-25T09:43:27;16.63;;;2.93;;
22388;SDS011;11362;48.102;11.620;2023-02-25T09:46:04;20.80;;;3.07;;
22388;SDS011;11362;48.102;11.620;2023-02-25T09:48:36;9.93;;;2.43;;
22388;SDS011;11362;48.102;11.620;2023-02-25T09:51:20;8.70;;;2.13;;
22388;SDS011;11362;48.102;11.620;2023-02-25T09:53:48;5.17;;;2.47;;
22388;SDS011;11362;48.102;11.620;2023-02-25T09:56:22;5.37;;;1.60;;
22388;SDS011;11362;48.102;11.620;2023-02-25T09:58:55;6.63;;;1.70;;
22388;SDS011;11362;48.102;11.620;2023-02-25T10:03:53;5.67;;;1.77;;
22388;SDS011;11362;48.102;11.620;2023-02-25T10:06:30;6.20;;;1.90;;
22388;SDS011;11362;48.102;11.620;2023-02-25T10:09:06;5.33;;;1.53;;
22388;SDS011;11362;48.102;11.620;2023-02-25T10:11:41;4.80;;;1.57;;
22388;SDS011;11362;48.102;11.620;2023-02-25T10:20:25;18.00;;;2.40;;
22388;SDS011;11362;48.102;11.620;2023-02-25T10:26:24;4.90;;;1.67;;
22388;SDS011;11362;48.102;11.620;2023-02-25T10:28:54;9.27;;;1.63;;
22388;SDS011;11362;48.102;11.620;2023-02-25T10:31:23;27.13;;;2.73;;
22388;SDS011;11362;48.102;11.620;2023-02-25T10:33:50;8.40;;;1.90;;
22388;SDS011;11362;48.102;11.620;2023-02-25T10:36:21;18.13;;;3.07;;
22388;SDS011;11362;48.102;11.620;2023-02-25T10:38:51;3.63;;;1.60;;
22388;SDS011;11362;48.102;11.620;2023-02-25T10:41:18;8.17;;;2.57;;
22388;SDS011;11362;48.102;11.620;2023-02-25T10:43:45;12.33;;;2.33;;
22388;SDS011;11362;48.102;11.620;2023-02-25T10:49:23;14.30;;;2.93;;
22388;SDS011;11362;48.102;11.620;2023-02-25T10:54:30;15.33;;;2.83;;
22388;SDS011;11362;48.102;11.620;2023-02-25T10:57:05;16.83;;;2.60;;
22388;SDS011;11362;48.102;11.620;2023-02-25T10:59:37;12.00;;;2.50;;
22388;SDS011;11362;48.102;11.620;2023-02-25T11:02:25;18.67;;;2.87;;
22388;SDS011;11362;48.102;11.620;2023-02-25T11:04:53;8.07;;;2.40;;
22388;SDS011;11362;48.102;11.620;2023-02-25T11:07:30;16.73;;;2.47;;
22388;SDS011;11362;48.102;11.620;2023-02-25T11:10:18;14.23;;;2.27;;
22388;SDS011;11362;48.102;11.620;2023-02-25T11:12:46;11.07;;;3.20;;
22388;SDS011;11362;48.102;11.620;2023-02-25T11:17:54;20.67;;;3.53;;
22388;SDS011;11362;48.102;11.620;2023-02-25T11:20:28;12.77;;;3.00;;
22388;SDS011;11362;48.102;11.620;2023-02-25T11:22:55;17.57;;;2.93;;
22388;SDS011;11362;48.102;11.620;2023-02-25T11:25:42;13.30;;;2.63;;
22388;SDS011;11362;48.102;11.620;2023-02-25T11:28:07;16.20;;;2.70;;
22388;SDS011;11362;48.102;11.620;2023-02-25T11:30:44;17.57;;;3.47;;
22388;SDS011;11362;48.102;11.620;2023-02-25T11:36:09;19.67;;;3.27;;
22388;SDS011;11362;48.102;11.620;2023-02-25T11:38:36;15.17;;;3.37;;
22388;SDS011;11362;48.102;11.620;2023-02-25T11:41:13;11.63;;;2.63;;
22388;SDS011;11362;48.102;11.620;2023-02-25T11:43:41;13.37;;;2.70;;
22388;SDS011;11362;48.102;11.620;2023-02-25T11:46:19;17.77;;;2.60;;
22388;SDS011;11362;48.102;11.620;2023-02-25T11:48:52;15.40;;;2.57;;
22388;SDS011;11362;48.102;11.620;2023-02-25T11:51:27;26.87;;;8.93;;
22388;SDS011;11362;48.102;11.620;2023-02-25T12:04:49;12.63;;;4.13;;
22388;SDS011;11362;48.102;11.620;2023-02-25T12:07:53;16.57;;;3.83;;
22388;SDS011;11362;48.102;11.620;2023-02-25T12:24:32;12.07;;;3.33;;
22388;SDS011;11362;48.102;11.620;2023-02-25T12:41:37;18.27;;;3.83;;
22388;SDS011;11362;48.102;11.620;2023-02-25T12:47:08;17.33;;;4.80;;
22388;SDS011;11362;48.102;11.620;2023-02-25T13:12:18;9.50;;;3.43;;
22388;SDS011;11362;48.102;11.620;2023-02-25T13:15:02;13.33;;;2.97;;
22388;SDS011;11362;48.102;11.620;2023-02-25T13:18:34;12.27;;;3.23;;
22388;SDS011;11362;48.102;11.620;2023-02-25T13:23:34;5.03;;;2.27;;
22388;SDS011;11362;48.102;11.620;2023-02-25T13:34:48;6.67;;;2.30;;
22388;SDS011;11362;48.102;11.620;2023-02-25T13:37:41;8.00;;;2.83;;
22388;SDS011;11362;48.102;11.620;2023-02-25T13:56:51;8.07;;;2.00;;
22388;SDS011;11362;48.102;11.620;2023-02-25T14:01:59;5.67;;;2.43;;
22388;SDS011;11362;48.102;11.620;2023-02-25T14:05:02;8.47;;;2.20;;
22388;SDS011;11362;48.102;11.620;2023-02-25T14:13:03;4.40;;;1.60;;
22388;SDS011;11362;48.102;11.620;2023-02-25T14:16:19;4.80;;;1.60;;
22388;SDS011;11362;48.102;11.620;2023-02-25T14:18:36;6.17;;;2.27;;
22388;SDS011;11362;48.102;11.620;2023-02-25T14:35:17;7.30;;;1.90;;
22388;SDS011;11362;48.102;11.620;2023-02-25T14:37:55;5.20;;;1.67;;
22388;SDS011;11362;48.102;11.620;2023-02-25T14:45:58;3.07;;;1.53;;
22388;SDS011;11362;48.102;11.620;2023-02-25T14:51:28;5.23;;;1.53;;
22388;SDS011;11362;48.102;11.620;2023-02-25T15:05:47;3.37;;;1.30;;
22388;SDS011;11362;48.102;11.620;2023-02-25T15:11:06;2.80;;;1.47;;
22388;SDS011;11362;48.102;11.620;2023-02-25T15:13:48;2.93;;;1.37;;
22388;SDS011;11362;48.102;11.620;2023-02-25T15:21:43;1.33;;;0.93;;
22388;SDS011;11362;48.102;11.620;2023-02-25T15:24:09;2.17;;;1.23;;
22388;SDS011;11362;48.102;11.620;2023-02-25T15:29:17;2.77;;;1.20;;
22388;SDS011;11362;48.102;11.620;2023-02-25T15:34:58;4.47;;;1.30;;
22388;SDS011;11362;48.102;11.620;2023-02-25T15:37:36;2.93;;;1.27;;
22388;SDS011;11362;48.102;11.620;2023-02-25T15:42:48;4.20;;;1.10;;
22388;SDS011;11362;48.102;11.620;2023-02-25T15:53:07;1.67;;;1.10;;
22388;SDS011;11362;48.102;11.620;2023-02-25T15:58:01;1.43;;;0.93;;
22388;SDS011;11362;48.102;11.620;2023-02-25T16:06:05;2.13;;;0.97;;
22388;SDS011;11362;48.102;11.620;2023-02-25T16:08:37;1.60;;;0.93;;
22388;SDS011;11362;48.102;11.620;2023-02-25T16:11:18;1.37;;;0.90;;
22388;SDS011;11362;48.102;11.620;2023-02-25T16:13:48;1.53;;;1.07;;
22388;SDS011;11362;48.102;11.620;2023-02-25T16:16:16;1.33;;;1.07;;
22388;SDS011;11362;48.102;11.620;2023-02-25T16:18:44;1.13;;;1.03;;
22388;SDS011;11362;48.102;11.620;2023-02-25T16:21:12;1.00;;;0.90;;
22388;SDS011;11362;48.102;11.620;2023-02-25T16:23:46;1.47;;;1.00;;
22388;SDS011;11362;48.102;11.620;2023-02-25T16:39:19;2.00;;;1.00;;
22388;SDS011;11362;48.102;11.620;2023-02-25T16:41:46;1.00;;;0.70;;
22388;SDS011;11362;48.102;11.620;2023-02-25T16:44:26;1.07;;;0.90;;
22388;SDS011;11362;48.102;11.620;2023-02-25T16:46:55;1.17;;;1.07;;
22388;SDS011;11362;48.102;11.620;2023-02-25T16:49:39;2.90;;;0.90;;
22388;SDS011;11362;48.102;11.620;2023-02-25T16:52:11;0.70;;;0.70;;
22388;SDS011;11362;48.102;11.620;2023-02-25T16:54:41;2.47;;;0.77;;
22388;SDS011;11362;48.102;11.620;2023-02-25T16:57:08;0.80;;;0.60;;
22388;SDS011;11362;48.102;11.620;2023-02-25T16:59:43;1.40;;;0.87;;
22388;SDS011;11362;48.102;11.620;2023-02-25T17:04:46;1.03;;;0.60;;
22388;SDS011;11362;48.102;11.620;2023-02-25T17:07:15;1.23;;;0.90;;
22388;SDS011;11362;48.102;11.620;2023-02-25T17:09:47;0.50;;;0.50;;
22388;SDS011;11362;48.102;11.620;2023-02-25T17:12:17;1.03;;;1.03;;
22388;SDS011;11362;48.102;11.620;2023-02-25T17:14:47;0.60;;;0.57;;
22388;SDS011;11362;48.102;11.620;2023-02-25T17:17:25;0.80;;;0.73;;
22388;SDS011;11362;48.102;11.620;2023-02-25T17:19:53;0.80;;;0.80;;
22388;SDS011;11362;48.102;11.620;2023-02-25T17:22:21;0.87;;;0.87;;
22388;SDS011;11362;48.102;11.620;2023-02-25T17:24:48;0.97;;;0.73;;
22388;SDS011;11362;48.102;11.620;2023-02-25T17:27:15;2.20;;;1.17;;
22388;SDS011;11362;48.102;11.620;2023-02-25T17:29:41;1.73;;;0.83;;
22388;SDS011;11362;48.102;11.620;2023-02-25T17:34:55;0.97;;;0.97;;
22388;SDS011;11362;48.102;11.620;2023-02-25T17:37:24;1.13;;;0.70;;
22388;SDS011;11362;48.102;11.620;2023-02-25T17:39:52;1.70;;;0.70;;
22388;SDS011;11362;48.102;11.620;2023-02-25T17:42:32;0.70;;;0.70;;
22388;SDS011;11362;48.102;11.620;2023-02-25T17:44:59;2.63;;;0.80;;
22388;SDS011;11362;48.102;11.620;2023-02-25T17:47:30;0.70;;;0.63;;
22388;SDS011;11362;48.102;11.620;2023-02-25T17:49:58;1.40;;;0.63;;
22388;SDS011;11362;48.102;11.620;2023-02-25T17:52:46;0.97;;;0.70;;
22388;SDS011;11362;48.102;11.620;2023-02-25T17:55:30;1.00;;;0.50;;
22388;SDS011;11362;48.102;11.620;2023-02-25T17:57:59;0.70;;;0.70;;
22388;SDS011;11362;48.102;11.620;2023-02-25T18:00:29;1.17;;;0.80;;
22388;SDS011;11362;48.102;11.620;2023-02-25T18:03:06;1.63;;;0.90;;
22388;SDS011;11362;48.102;11.620;2023-02-25T18:05:48;1.17;;;0.80;;
22388;SDS011;11362;48.102;11.620;2023-02-25T18:08:31;0.63;;;0.50;;
22388;SDS011;11362;48.102;11.620;2023-02-25T18:11:20;1.60;;;0.70;;
22388;SDS011;11362;48.102;11.620;2023-02-25T18:13:49;1.50;;;0.80;;
22388;SDS011;11362;48.102;11.620;2023-02-25T18:16:24;0.40;;;0.40;;
22388;SDS011;11362;48.102;11.620;2023-02-25T18:18:57;0.70;;;0.60;;
22388;SDS011;11362;48.102;11.620;2023-02-25T18:21:23;1.00;;;0.70;;
22388;SDS011;11362;48.102;11.620;2023-02-25T18:23:48;0.63;;;0.63;;
22388;SDS011;11362;48.102;11.620;2023-02-25T18:28:41;0.83;;;0.70;;
22388;SDS011;11362;48.102;11.620;2023-02-25T18:31:07;1.07;;;0.70;;